Latest Weather Observations for Mount Gellibrand

IDV60801

Issued at 2:02 am EDT Saturday 10 December 2016 (issued every 30 minutes, with the page automatically refreshed every 10 minutes)

About weather observations | Map of weather stations | Latest weather observations for VIC | Other Formats
Station Details ID: 090035 Name: MOUNT GELLIBRAND Lat: -38.23 Lon: 143.79 Height: 261.0 m
Data from the previous 72 hours. | See also: Recent months at Mount Gellibrand
Date/Time
EDT
Temp
°C
App
Temp
°C
Dew
Point
°C
Rel
Hum
%
Delta-T
°C
Wind Press
QNH
hPa
Press
MSL
hPa
Rain since
9am
mm
Dir  Spd
km/h
Gust
km/h
Spd
kts
Gust
kts
10/02:00am 9.2 6.9 7.5 89 0.8 SW 9 13 5 7 1022.0 1021.5 0.0
10/01:30am 9.2 6.2 7.8 91 0.7 SW 13 17 7 9 1022.1 1021.6 0.0
10/01:00am 9.2 6.9 7.6 90 0.8 WSW 9 11 5 6 1022.3 1021.8 0.0
10/12:30am 9.3 6.7 7.7 90 0.8 WSW 11 15 6 8 1022.5 1022.0 0.0
10/12:00am 9.4 6.5 8.2 92 0.6 SW 13 15 7 8 1022.6 1022.1 0.0
 
Date/Time
EDT
Temp
°C
App
Temp
°C
Dew
Point
°C
Rel
Hum
%
Delta-T
°C
Wind Press
QNH
hPa
Press
MSL
hPa
Rain since
9am
mm
Dir  Spd
km/h
Gust
km/h
Spd
kts
Gust
kts
09/11:30pm 9.4 6.9 8.2 92 0.6 WSW 11 13 6 7 1022.6 1022.1 0.0
09/11:00pm 9.4 7.3 8.2 92 0.6 SW 9 11 5 6 1022.7 1022.2 0.0
09/10:30pm 9.5 5.4 7.8 89 0.8 SW 19 22 10 12 1022.6 1022.1 0.0
09/10:00pm 9.7 5.6 7.8 88 0.9 WSW 19 20 10 11 1022.4 1021.9 0.0
09/09:30pm 9.8 5.6 7.6 86 1.1 WSW 19 24 10 13 1022.0 1021.5 0.0
09/09:00pm 10.1 5.7 7.5 84 1.3 SW 20 28 11 15 1021.9 1021.4 0.0
09/08:30pm 10.0 5.6 7.3 83 1.3 WSW 20 24 11 13 1021.6 1021.1 0.0
09/08:00pm 10.6 5.9 7.7 82 1.4 SW 22 28 12 15 1021.5 1021.0 0.0
09/07:30pm 10.8 5.6 7.1 78 1.8 SW 24 32 13 17 1021.1 1020.6 0.0
09/07:00pm 12.4 7.9 7.1 70 2.6 SW 20 35 11 19 1020.6 1020.0 0.0
09/06:30pm 12.4 7.6 7.5 72 2.4 WSW 22 33 12 18 1020.3 1019.7 0.0
09/06:00pm 12.2 4.8 6.7 69 2.7 WSW 35 43 19 23 1019.9 1019.3 0.0
09/05:30pm 12.6 5.7 6.4 66 3.0 WSW 32 41 17 22 1019.5 1019.0 0.0
09/05:00pm 12.9 6.4 6.3 64 3.2 SW 30 43 16 23 1019.5 1019.0 0.0
09/04:30pm 11.9 4.1 6.8 71 2.5 SW 37 48 20 26 1019.6 1019.1 0.0
09/04:00pm 13.9 7.7 6.3 60 3.7 SW 28 37 15 20 1019.4 1018.9 0.0
09/03:30pm 13.0 5.7 7.2 68 2.9 SW 35 46 19 25 1019.3 1018.8 0.0
09/03:00pm 13.3 7.4 5.7 60 3.6 SW 26 33 14 18 1019.3 1018.8 0.0
09/02:47pm 14.2 7.1 5.6 56 4.1 SW 32 43 17 23 1019.2 1018.7 0.0
09/02:30pm 13.4 5.2 6.5 63 3.4 WSW 39 50 21 27 1018.9 1018.4 0.0
09/02:00pm 16.0 8.9 3.8 44 5.7 SW 30 41 16 22 1018.8 1018.3 0.0
09/01:30pm 14.0 7.2 5.1 55 4.2 SW 30 37 16 20 1018.7 1018.2 0.0
09/01:00pm 13.1 6.6 4.8 57 3.9 WSW 28 39 15 21 1018.6 1018.1 0.0
09/12:30pm 12.9 3.9 4.8 58 3.8 SW 41 56 22 30 1018.2 1017.7 0.0
09/12:23pm 12.7 5.1 5.6 62 3.4 SW 35 56 19 30 1017.9 1017.4 0.0
09/12:00pm 13.7 7.0 3.8 51 4.5 SW 28 37 15 20 1017.9 1017.4 0.0
09/11:30am 12.5 5.7 3.2 53 4.2 WSW 28 39 15 21 1017.6 1017.0 0.0
09/11:00am 12.7 7.0 4.7 58 3.7 SW 24 30 13 16 1017.4 1016.8 0.0
09/10:30am 11.8 4.2 3.8 58 3.6 SW 33 46 18 25 1016.9 1016.3 0.0
09/10:00am 12.4 2.1 2.6 51 4.3 SW 46 61 25 33 1016.4 1015.8 0.0
09/09:41am 11.8 2.8 4.3 60 3.4 SW 41 61 22 33 1016.2 1015.6 0.0
09/09:30am 11.3 4.2 5.6 68 2.7 SW 32 46 17 25 1016.4 1015.8 0.0
09/09:00am 10.1 3.3 5.3 72 2.2 SW 30 39 16 21 1015.9 1015.3 1.8
09/08:30am 10.4 5.1 6.7 78 1.8 SW 24 33 13 18 1015.3 1014.8 1.8
09/08:00am 9.5 5.3 7.4 87 1.0 W 19 26 10 14 1014.8 1014.3 1.8
09/07:30am 8.8 4.5 6.8 87 0.9 W 19 24 10 13 1014.3 1013.7 1.8
09/07:00am 8.5 3.2 6.8 89 0.8 SW 24 30 13 16 1013.6 1013.0 1.8
09/06:30am 7.3 2.2 5.8 90 0.7 SW 22 30 12 16 1012.9 1012.3 1.8
09/06:00am 7.3 0.6 5.4 88 0.9 SW 30 35 16 19 1012.4 1011.8 1.8
09/05:30am 7.8 0.2 5.8 87 0.9 SW 35 56 19 30 1011.6 1011.1 1.8
09/05:28am 7.8 0.6 5.8 87 0.9 SW 33 56 18 30 1011.4 1010.9 1.8
09/05:27am 7.7 0.7 5.8 88 0.9 SW 32 48 17 26 1011.6 1011.1 1.8
09/05:00am 6.8 1.2 5.3 90 0.7 SW 24 28 13 15 1011.2 1010.7 1.8
09/04:30am 6.9 1.4 5.7 92 0.5 SW 24 28 13 15 1010.8 1010.2 1.8
09/04:00am 7.1 0.4 5.4 89 0.8 WSW 30 37 16 20 1010.2 1009.6 1.8
09/03:30am 7.6 0.4 5.7 88 0.9 WSW 33 43 18 23 1009.8 1009.2 1.8
09/03:00am 7.1 0.5 6.0 93 0.5 WSW 30 33 16 18 1009.7 1009.1 1.8
09/02:30am 7.2 0.9 5.8 91 0.6 WSW 28 32 15 17 1009.6 1009.0 1.8
09/02:00am 7.6 0.4 6.1 90 0.7 WSW 33 37 18 20 1009.5 1008.9 1.8
09/01:30am 8.1 0.6 6.4 89 0.8 WSW 35 46 19 25 1009.1 1008.5 1.8
09/01:00am 8.1 2.6 7.5 96 0.3 WSW 26 35 14 19 1009.2 1008.6 1.8
09/12:30am 8.4 2.3 8.1 98 0.1 WSW 30 35 16 19 1008.9 1008.3 1.8
09/12:00am 8.6 2.2 8.6 100 0.0 WSW 32 41 17 22 1008.6 1008.0 1.8
 
Date/Time
EDT
Temp
°C
App
Temp
°C
Dew
Point
°C
Rel
Hum
%
Delta-T
°C
Wind Press
QNH
hPa
Press
MSL
hPa
Rain since
9am
mm
Dir  Spd
km/h
Gust
km/h
Spd
kts
Gust
kts
08/11:30pm 9.2 3.6 8.9 98 0.1 WSW 28 35 15 19 1008.3 1007.7 1.4
08/11:00pm 9.3 3.2 8.1 92 0.6 WSW 30 39 16 21 1008.2 1007.6 1.4
08/10:30pm 9.9 4.2 8.2 89 0.8 WSW 28 35 15 19 1007.5 1006.9 1.2
08/10:00pm 9.7 2.2 7.8 88 0.9 WSW 37 46 20 25 1006.7 1006.1 1.2
08/09:30pm 10.2 3.0 7.8 85 1.2 WSW 35 44 19 24 1006.2 1005.6 1.2
08/09:00pm 10.0 2.0 9.1 94 0.5 SW 41 59 22 32 1005.3 1004.7 1.2
08/08:56pm 10.1 3.3 9.2 94 0.5 SW 35 57 19 31 1005.4 1004.8 1.2
08/08:30pm 10.3 1.8 9.4 94 0.5 WSW 44 57 24 31 1004.7 1004.1 1.0
08/08:20pm 10.4 0.8 9.6 95 0.4 WSW 50 70 27 38 1004.4 1003.7 1.0
08/08:00pm 10.8 2.2 10.3 97 0.3 SW 46 63 25 34 1003.6 1003.0 1.0
08/07:54pm 10.7 3.1 10.4 98 0.2 WSW 41 63 22 34 1003.6 1003.0 1.0
08/07:30pm 11.6 3.3 10.0 90 0.8 WSW 44 59 24 32 1003.1 1002.5 0.8
08/07:00pm 11.8 4.2 10.5 92 0.7 WSW 41 57 22 31 1002.1 1001.5 0.8
08/06:53pm 11.8 2.9 10.5 92 0.7 SW 48 67 26 36 1002.1 1001.5 0.8
08/06:30pm 12.1 3.5 11.6 97 0.3 WSW 48 61 26 33 1001.1 1000.4 0.8
08/06:00pm 13.2 4.5 10.0 81 1.7 W 46 61 25 33 1000.2 999.5 0.2
08/05:30pm 15.0 4.0 8.5 65 3.3 W 56 83 30 45 998.9 998.3 0.2
08/05:01pm 13.9 4.0 11.1 83 1.5 W 54 78 29 42 998.2 997.6 0.2
08/05:00pm 13.7 3.9 11.4 86 1.2 W 54 72 29 39 998.4 997.8 0.2
08/04:30pm 14.7 4.5 11.5 81 1.7 W 56 74 30 40 998.5 997.9 0.2
08/04:10pm 14.9 3.8 8.8 67 3.1 W 57 93 31 50 997.6 996.9 0.0
08/04:01pm 16.8 6.9 8.2 57 4.4 W 50 70 27 38 997.7 997.0 0.0
08/04:00pm 17.5 7.7 8.6 56 4.7 W 50 69 27 37 997.8 997.1 0.0
08/03:33pm 17.6 5.8 7.6 52 5.1 W 59 80 32 43 997.6 996.9 0.0
08/03:30pm 17.6 5.0 7.4 51 5.2 W 63 78 34 42 997.8 997.1 0.0
08/03:00pm 16.2 4.9 7.9 58 4.3 W 57 80 31 43 997.5 996.8 0.0
08/02:30pm 18.4 5.3 8.4 52 5.2 W 67 85 36 46 996.8 996.1 0.0
08/02:00pm 18.4 4.1 7.5 49 5.6 WNW 72 93 39 50 996.3 995.6 0.0
08/01:49pm 18.4 4.3 6.6 46 6.0 WNW 70 96 38 52 996.5 995.8 0.0
08/01:48pm 19.0 5.2 7.8 48 5.8 WNW 70 96 38 52 996.8 996.1 0.0
08/01:30pm 17.7 1.8 6.9 49 5.5 W 80 104 43 56 995.7 995.1 0.0
08/01:00pm 17.3 3.3 7.1 51 5.2 W 70 93 38 50 996.1 995.4 0.0
08/12:30pm 17.9 3.8 6.4 47 5.8 WNW 70 91 38 49 995.9 995.2 0.0
08/12:00pm 17.2 3.4 7.0 51 5.2 WNW 69 91 37 49 995.9 995.2 0.0
08/11:35am 16.5 3.4 8.2 58 4.3 WNW 67 87 36 47 996.3 995.6 0.0
08/11:30am 16.4 4.1 8.6 60 4.0 WNW 63 82 34 44 996.3 995.6 0.0
08/11:00am 15.4 4.4 9.1 66 3.3 WNW 57 76 31 41 996.6 995.9 0.0
08/10:34am 14.5 3.2 9.5 72 2.6 WNW 59 78 32 42 996.8 996.1 0.0
08/10:30am 14.3 2.9 8.9 70 2.8 WNW 59 78 32 42 996.4 995.7 0.0
08/10:04am 14.0 6.6 12.6 91 0.8 WNW 43 63 23 34 996.6 995.9 0.0
08/10:00am 13.7 6.7 12.6 93 0.6 WNW 41 54 22 29 996.6 995.9 0.0
08/09:58am 13.4 5.9 12.1 92 0.7 WNW 43 61 23 33 996.7 996.0 0.0
08/09:31am 13.2 2.4 11.1 87 1.1 W 59 80 32 43 996.2 995.5 0.0
08/09:30am 13.1 1.8 11.0 87 1.1 W 61 80 33 43 996.3 995.6 0.0
08/09:00am 14.2 4.6 13.4 95 0.5 WNW 56 74 30 40 995.2 994.6 -
08/08:40am 14.3 4.1 14.3 100 0.0 NW 61 96 33 52 994.6 994.0 -
08/08:38am 16.8 7.9 16.8 100 0.0 NNW 59 80 32 43 994.7 994.1 -
08/08:30am 16.9 8.0 16.9 100 0.0 NNW 59 72 32 39 993.5 992.8 -
08/08:00am 16.6 8.0 16.6 100 0.0 N 57 69 31 37 993.7 993.0 -
08/07:30am 15.6 6.6 15.6 100 0.0 N 57 69 31 37 994.0 993.3 -
08/07:00am 15.4 7.9 15.1 98 0.2 N 48 56 26 30 995.0 994.4 -
08/06:30am 15.6 6.6 15.0 96 0.3 N 56 69 30 37 995.2 994.6 -
08/06:00am 15.9 5.6 14.1 89 1.0 N 61 78 33 42 995.4 994.8 -
08/05:31am 18.0 4.6 12.2 69 3.2 NNW 74 93 40 50 995.5 994.9 -
08/05:30am 18.3 4.5 12.1 67 3.5 NNW 76 93 41 50 995.5 994.9 -
08/05:07am 21.9 7.6 8.8 43 7.0 N 74 96 40 52 994.4 993.7 -
08/05:00am 21.5 8.2 9.1 45 6.7 N 69 85 37 46 994.9 994.3 -
08/04:34am 22.3 9.4 7.7 39 7.7 N 65 83 35 45 994.9 994.3 -
08/04:30am 22.2 9.3 7.6 39 7.7 N 65 78 35 42 995.4 994.8 -
08/04:05am 22.2 10.0 7.2 38 7.8 N 61 82 33 44 995.7 995.1 -
08/04:00am 22.3 9.7 7.3 38 7.9 N 63 82 34 44 995.7 995.1 -
08/03:51am 22.5 11.2 7.1 37 8.0 N 56 74 30 40 995.9 995.2 -
08/03:46am 21.9 13.2 7.7 40 7.5 N 43 72 23 39 996.5 995.8 -
08/03:42am 21.9 14.7 7.7 40 7.5 N 35 54 19 29 996.8 996.1 -
08/03:30am 20.8 14.3 8.1 44 6.7 N 32 35 17 19 997.5 996.8 -
08/03:00am 20.4 13.6 7.7 44 6.7 N 33 39 18 21 998.0 997.4 0.0
08/02:30am 18.7 12.3 8.7 52 5.3 NNE 32 39 17 21 998.7 998.1 -
08/02:00am 18.2 11.9 9.0 55 4.9 NNE 32 37 17 20 999.0 998.4 -
08/01:30am 17.6 11.6 10.2 62 4.0 NNE 32 39 17 21 1000.3 999.6 -
08/01:00am 17.2 11.4 10.8 66 3.5 NE 32 39 17 21 1001.1 1000.4 -
08/12:30am 16.0 11.7 12.2 78 2.1 NE 26 32 14 17 1002.2 1001.6 -
08/12:00am 15.2 10.9 12.0 81 1.8 NE 26 32 14 17 1003.1 1002.5 -
 
Date/Time
EDT
Temp
°C
App
Temp
°C
Dew
Point
°C
Rel
Hum
%
Delta-T
°C
Wind Press
QNH
hPa
Press
MSL
hPa
Rain since
9am
mm
Dir  Spd
km/h
Gust
km/h
Spd
kts
Gust
kts
07/11:30pm 15.0 11.2 11.2 78 2.1 ENE 22 28 12 15 1004.1 1003.4 -
07/11:00pm 15.2 11.0 11.0 76 2.3 ENE 24 28 13 15 1005.0 1004.4 -
07/10:30pm 14.6 10.3 10.8 78 2.0 E 24 32 13 17 1005.5 1004.9 -
07/10:00pm 14.2 10.2 10.4 78 2.0 E 22 28 12 15 1006.0 1005.4 -
07/09:30pm 14.4 9.8 9.6 73 2.5 E 24 32 13 17 1006.3 1005.7 -
07/09:00pm 15.1 10.5 9.7 70 2.8 E 24 32 13 17 1006.5 1005.9 0.0
07/08:30pm 15.9 11.7 9.6 66 3.3 ESE 22 28 12 15 1007.1 1006.5 -
07/08:00pm 17.5 13.2 9.2 58 4.4 ESE 22 28 12 15 1007.4 1006.8 -
07/07:30pm 19.3 15.2 8.6 50 5.6 ESE 20 26 11 14 1007.7 1007.2 -
07/07:00pm 20.9 17.3 8.2 44 6.7 ESE 17 22 9 12 1008.2 1007.6 -
07/06:30pm 21.7 16.9 7.2 39 7.6 E 22 26 12 14 1008.3 1007.7 -
07/06:00pm 22.8 19.4 6.1 34 8.6 ENE 13 19 7 10 1008.6 1008.0 -
07/05:30pm 25.6 20.1 0.3 19 11.9 N 19 30 10 16 1008.7 1008.1 -
07/05:00pm 26.3 21.6 2.9 22 11.6 N 17 30 9 16 1009.1 1008.5 -
07/04:30pm 25.2 20.4 2.6 23 11.1 NNW 17 33 9 18 1009.9 1009.3 -
07/04:00pm 26.0 21.2 2.7 22 11.5 WNW 17 26 9 14 1010.4 1009.8 -
07/03:30pm 25.0 19.9 3.0 24 10.8 NNW 19 30 10 16 1010.8 1010.2 -
07/03:00pm 23.5 19.4 2.4 25 10.2 NW 13 35 7 19 1011.6 1011.1 -
07/02:30pm 23.4 19.7 4.4 29 9.5 NNW 13 24 7 13 1012.2 1011.6 -
07/02:00pm 22.1 18.6 3.3 29 9.1 NNE 11 26 6 14 1012.7 1012.1 -
07/01:30pm 20.7 17.4 4.3 34 8.0 NNE 11 20 6 11 1013.2 1012.6 -
07/01:00pm 20.1 17.4 3.8 34 7.9 NE 7 20 4 11 1013.7 1013.1 -
07/12:30pm 19.3 16.2 3.5 35 7.5 N 9 19 5 10 1014.0 1013.4 -
07/11:00am 17.6 14.6 4.2 41 6.4 NNE 9 17 5 9 1015.0 1014.5 0.0
07/10:30am 16.3 13.7 4.0 44 5.8 NE 7 17 4 9 1015.2 1014.7 0.0
07/10:00am 15.4 12.6 5.3 51 4.9 NNE 9 13 5 7 1015.3 1014.8 0.0
07/09:30am 14.3 12.4 7.6 64 3.4 NNE 7 17 4 9 1015.3 1014.8 0.0
07/09:00am 13.2 11.7 8.5 73 2.4 NE 6 11 3 6 1015.4 1014.9 0.0
07/08:30am 12.3 10.7 8.2 76 2.0 NNE 6 9 3 5 1015.2 1014.7 0.0
07/08:00am 11.2 9.3 7.7 79 1.7 NNE 7 9 4 5 1015.1 1014.6 0.0
07/07:30am 11.1 9.5 7.8 80 1.6 NNE 6 7 3 4 1015.1 1014.6 0.0
07/07:00am 10.1 7.8 7.3 83 1.4 N 9 13 5 7 1015.1 1014.6 0.0
07/06:30am 9.4 6.3 7.2 86 1.1 N 13 15 7 8 1015.2 1014.7 0.0
07/06:00am 9.6 6.9 7.5 87 1.0 N 11 13 6 7 1015.0 1014.5 0.0
07/05:30am 9.5 6.9 7.6 88 0.9 N 11 13 6 7 1014.8 1014.3 0.0
07/05:00am 9.2 7.2 7.0 86 1.0 NNW 7 11 4 6 1014.7 1014.2 0.0
07/04:30am 9.2 6.8 7.0 86 1.0 N 9 9 5 5 1014.4 1013.9 0.0
07/04:00am 9.6 7.2 7.0 84 1.2 N 9 11 5 6 1014.2 1013.6 0.0
07/03:30am 9.9 7.9 7.3 84 1.3 N 7 9 4 5 1014.3 1013.7 0.0
07/03:00am 10.0 8.1 7.4 84 1.3 NNW 7 9 4 5 1014.7 1014.2 0.0
07/02:30am 9.9 7.5 7.2 83 1.3 N 9 9 5 5 1014.9 1014.4 0.0

Other Formats:

Comma delimited format used in spreadsheet applications
http://www.bom.gov.au/fwo/IDV60801/IDV60801.95845.axf

JavaScript Object Notation format (JSON) in row-major order
http://www.bom.gov.au/fwo/IDV60801/IDV60801.95845.json